sensor_id;sensor_type;location;lat;lon;timestamp;P1;durP1;ratioP1;P2;durP2;ratioP2
2099;SDS011;1055;48.854;9.302;2023-03-23T00:02:18;5.50;;;2.73;;
2099;SDS011;1055;48.854;9.302;2023-03-23T00:04:48;5.57;;;2.30;;
2099;SDS011;1055;48.854;9.302;2023-03-23T00:07:14;6.80;;;2.30;;
2099;SDS011;1055;48.854;9.302;2023-03-23T00:09:45;7.33;;;2.90;;
2099;SDS011;1055;48.854;9.302;2023-03-23T00:12:22;9.63;;;3.47;;
2099;SDS011;1055;48.854;9.302;2023-03-23T00:14:58;7.10;;;3.10;;
2099;SDS011;1055;48.854;9.302;2023-03-23T00:17:25;6.53;;;2.43;;
2099;SDS011;1055;48.854;9.302;2023-03-23T00:19:52;6.40;;;2.43;;
2099;SDS011;1055;48.854;9.302;2023-03-23T00:22:18;8.93;;;3.73;;
2099;SDS011;1055;48.854;9.302;2023-03-23T00:24:46;7.53;;;3.57;;
2099;SDS011;1055;48.854;9.302;2023-03-23T00:27:13;8.20;;;3.03;;
2099;SDS011;1055;48.854;9.302;2023-03-23T00:29:39;6.70;;;2.93;;
2099;SDS011;1055;48.854;9.302;2023-03-23T00:32:06;6.17;;;2.47;;
2099;SDS011;1055;48.854;9.302;2023-03-23T00:34:38;7.13;;;2.70;;
2099;SDS011;1055;48.854;9.302;2023-03-23T00:37:05;5.20;;;2.27;;
2099;SDS011;1055;48.854;9.302;2023-03-23T00:39:31;7.20;;;2.53;;
2099;SDS011;1055;48.854;9.302;2023-03-23T00:41:56;5.57;;;2.30;;
2099;SDS011;1055;48.854;9.302;2023-03-23T00:44:25;5.77;;;2.13;;
2099;SDS011;1055;48.854;9.302;2023-03-23T00:46:53;5.30;;;2.13;;
2099;SDS011;1055;48.854;9.302;2023-03-23T00:49:21;6.23;;;2.00;;
2099;SDS011;1055;48.854;9.302;2023-03-23T00:51:51;6.00;;;2.03;;
2099;SDS011;1055;48.854;9.302;2023-03-23T00:54:18;5.47;;;2.00;;
2099;SDS011;1055;48.854;9.302;2023-03-23T00:56:44;5.47;;;2.13;;
2099;SDS011;1055;48.854;9.302;2023-03-23T00:59:10;5.50;;;2.00;;
2099;SDS011;1055;48.854;9.302;2023-03-23T01:01:36;5.43;;;1.73;;
2099;SDS011;1055;48.854;9.302;2023-03-23T01:04:02;5.30;;;2.10;;
2099;SDS011;1055;48.854;9.302;2023-03-23T01:06:33;5.40;;;1.80;;
2099;SDS011;1055;48.854;9.302;2023-03-23T01:09:00;4.70;;;1.70;;
2099;SDS011;1055;48.854;9.302;2023-03-23T01:11:27;5.13;;;1.70;;
2099;SDS011;1055;48.854;9.302;2023-03-23T01:13:53;5.97;;;2.53;;
2099;SDS011;1055;48.854;9.302;2023-03-23T01:16:19;5.10;;;1.80;;
2099;SDS011;1055;48.854;9.302;2023-03-23T01:18:45;5.60;;;2.03;;
2099;SDS011;1055;48.854;9.302;2023-03-23T01:21:12;5.20;;;1.60;;
2099;SDS011;1055;48.854;9.302;2023-03-23T01:23:40;6.57;;;1.90;;
2099;SDS011;1055;48.854;9.302;2023-03-23T01:26:07;6.70;;;2.10;;
2099;SDS011;1055;48.854;9.302;2023-03-23T01:28:38;5.13;;;1.90;;
2099;SDS011;1055;48.854;9.302;2023-03-23T01:31:05;5.60;;;1.90;;
2099;SDS011;1055;48.854;9.302;2023-03-23T01:33:34;6.77;;;1.87;;
2099;SDS011;1055;48.854;9.302;2023-03-23T01:36:07;7.73;;;2.20;;
2099;SDS011;1055;48.854;9.302;2023-03-23T01:38:35;5.87;;;2.00;;
2099;SDS011;1055;48.854;9.302;2023-03-23T01:41:02;4.70;;;1.70;;
2099;SDS011;1055;48.854;9.302;2023-03-23T01:43:29;5.40;;;2.07;;
2099;SDS011;1055;48.854;9.302;2023-03-23T01:45:55;6.77;;;1.90;;
2099;SDS011;1055;48.854;9.302;2023-03-23T01:48:28;5.43;;;2.07;;
2099;SDS011;1055;48.854;9.302;2023-03-23T01:53:28;6.80;;;2.07;;
2099;SDS011;1055;48.854;9.302;2023-03-23T01:55:56;6.40;;;1.90;;
2099;SDS011;1055;48.854;9.302;2023-03-23T01:58:26;7.47;;;1.97;;
2099;SDS011;1055;48.854;9.302;2023-03-23T02:00:57;7.50;;;1.93;;
2099;SDS011;1055;48.854;9.302;2023-03-23T02:03:25;5.23;;;1.90;;
2099;SDS011;1055;48.854;9.302;2023-03-23T02:05:53;5.40;;;2.20;;
2099;SDS011;1055;48.854;9.302;2023-03-23T02:08:23;7.67;;;1.77;;
2099;SDS011;1055;48.854;9.302;2023-03-23T02:10:53;6.00;;;2.13;;
2099;SDS011;1055;48.854;9.302;2023-03-23T02:13:18;6.27;;;2.43;;
2099;SDS011;1055;48.854;9.302;2023-03-23T02:15:46;5.63;;;2.33;;
2099;SDS011;1055;48.854;9.302;2023-03-23T02:18:30;6.70;;;2.00;;
2099;SDS011;1055;48.854;9.302;2023-03-23T02:32:25;6.10;;;2.27;;
2099;SDS011;1055;48.854;9.302;2023-03-23T02:34:58;5.20;;;2.00;;
2099;SDS011;1055;48.854;9.302;2023-03-23T02:37:28;6.10;;;1.80;;
2099;SDS011;1055;48.854;9.302;2023-03-23T02:40:12;5.53;;;2.40;;
2099;SDS011;1055;48.854;9.302;2023-03-23T02:42:43;6.20;;;2.40;;
2099;SDS011;1055;48.854;9.302;2023-03-23T02:45:13;5.80;;;2.33;;
2099;SDS011;1055;48.854;9.302;2023-03-23T02:47:40;6.60;;;2.50;;
2099;SDS011;1055;48.854;9.302;2023-03-23T02:50:08;5.80;;;2.17;;
2099;SDS011;1055;48.854;9.302;2023-03-23T02:52:38;5.60;;;2.10;;
2099;SDS011;1055;48.854;9.302;2023-03-23T02:55:07;7.50;;;2.43;;
2099;SDS011;1055;48.854;9.302;2023-03-23T02:57:36;6.00;;;2.40;;
2099;SDS011;1055;48.854;9.302;2023-03-23T03:00:03;5.57;;;2.30;;
2099;SDS011;1055;48.854;9.302;2023-03-23T03:02:35;6.30;;;3.10;;
2099;SDS011;1055;48.854;9.302;2023-03-23T03:05:20;5.50;;;2.00;;
2099;SDS011;1055;48.854;9.302;2023-03-23T03:08:07;6.00;;;1.70;;
2099;SDS011;1055;48.854;9.302;2023-03-23T03:16:07;6.80;;;2.03;;
2099;SDS011;1055;48.854;9.302;2023-03-23T03:21:30;6.47;;;2.67;;
2099;SDS011;1055;48.854;9.302;2023-03-23T03:24:01;4.87;;;2.00;;
2099;SDS011;1055;48.854;9.302;2023-03-23T03:26:29;6.17;;;2.03;;
2099;SDS011;1055;48.854;9.302;2023-03-23T03:28:56;5.77;;;2.17;;
2099;SDS011;1055;48.854;9.302;2023-03-23T03:31:29;5.63;;;2.20;;
2099;SDS011;1055;48.854;9.302;2023-03-23T03:33:58;6.33;;;2.43;;
2099;SDS011;1055;48.854;9.302;2023-03-23T03:36:27;5.20;;;1.80;;
2099;SDS011;1055;48.854;9.302;2023-03-23T03:39:00;7.47;;;2.40;;
2099;SDS011;1055;48.854;9.302;2023-03-23T03:41:30;5.70;;;2.23;;
2099;SDS011;1055;48.854;9.302;2023-03-23T03:43:55;5.40;;;1.90;;
2099;SDS011;1055;48.854;9.302;2023-03-23T03:46:21;5.40;;;2.00;;
2099;SDS011;1055;48.854;9.302;2023-03-23T03:48:47;5.03;;;2.13;;
2099;SDS011;1055;48.854;9.302;2023-03-23T03:51:17;6.30;;;2.23;;
2099;SDS011;1055;48.854;9.302;2023-03-23T03:53:44;5.03;;;1.90;;
2099;SDS011;1055;48.854;9.302;2023-03-23T03:56:13;7.00;;;2.30;;
2099;SDS011;1055;48.854;9.302;2023-03-23T03:58:41;5.77;;;2.20;;
2099;SDS011;1055;48.854;9.302;2023-03-23T04:01:09;6.67;;;1.90;;
2099;SDS011;1055;48.854;9.302;2023-03-23T04:03:39;6.40;;;2.20;;
2099;SDS011;1055;48.854;9.302;2023-03-23T04:06:04;5.10;;;2.50;;
2099;SDS011;1055;48.854;9.302;2023-03-23T04:08:31;4.90;;;1.90;;
2099;SDS011;1055;48.854;9.302;2023-03-23T04:10:57;5.57;;;1.77;;
2099;SDS011;1055;48.854;9.302;2023-03-23T04:13:23;5.40;;;1.90;;
2099;SDS011;1055;48.854;9.302;2023-03-23T04:15:49;5.50;;;1.93;;
2099;SDS011;1055;48.854;9.302;2023-03-23T04:18:15;5.60;;;2.20;;
2099;SDS011;1055;48.854;9.302;2023-03-23T04:20:43;5.47;;;1.80;;
2099;SDS011;1055;48.854;9.302;2023-03-23T04:23:12;5.40;;;1.90;;
2099;SDS011;1055;48.854;9.302;2023-03-23T04:25:38;5.20;;;1.80;;
2099;SDS011;1055;48.854;9.302;2023-03-23T04:28:06;5.00;;;1.93;;
2099;SDS011;1055;48.854;9.302;2023-03-23T04:30:35;5.80;;;2.10;;
2099;SDS011;1055;48.854;9.302;2023-03-23T04:33:01;5.40;;;1.90;;
2099;SDS011;1055;48.854;9.302;2023-03-23T04:35:26;5.00;;;2.00;;
2099;SDS011;1055;48.854;9.302;2023-03-23T04:37:53;5.30;;;2.03;;
2099;SDS011;1055;48.854;9.302;2023-03-23T04:40:19;6.00;;;2.10;;
2099;SDS011;1055;48.854;9.302;2023-03-23T04:42:45;5.93;;;2.03;;
2099;SDS011;1055;48.854;9.302;2023-03-23T04:45:12;5.30;;;1.83;;
2099;SDS011;1055;48.854;9.302;2023-03-23T04:47:41;6.70;;;2.67;;
2099;SDS011;1055;48.854;9.302;2023-03-23T04:50:14;5.87;;;2.77;;
2099;SDS011;1055;48.854;9.302;2023-03-23T04:52:40;6.10;;;2.63;;
2099;SDS011;1055;48.854;9.302;2023-03-23T04:55:10;5.10;;;1.97;;
2099;SDS011;1055;48.854;9.302;2023-03-23T04:57:37;5.60;;;1.90;;
2099;SDS011;1055;48.854;9.302;2023-03-23T05:00:03;5.87;;;2.30;;
2099;SDS011;1055;48.854;9.302;2023-03-23T05:02:36;5.87;;;1.90;;
2099;SDS011;1055;48.854;9.302;2023-03-23T05:05:05;5.80;;;2.10;;
2099;SDS011;1055;48.854;9.302;2023-03-23T05:07:36;5.80;;;2.10;;
2099;SDS011;1055;48.854;9.302;2023-03-23T05:10:03;5.10;;;2.30;;
2099;SDS011;1055;48.854;9.302;2023-03-23T05:12:29;5.03;;;1.93;;
2099;SDS011;1055;48.854;9.302;2023-03-23T05:14:55;6.73;;;2.60;;
2099;SDS011;1055;48.854;9.302;2023-03-23T05:17:20;5.37;;;1.97;;
2099;SDS011;1055;48.854;9.302;2023-03-23T05:19:52;5.33;;;2.00;;
2099;SDS011;1055;48.854;9.302;2023-03-23T05:22:18;5.67;;;2.17;;
2099;SDS011;1055;48.854;9.302;2023-03-23T05:24:46;4.60;;;1.80;;
2099;SDS011;1055;48.854;9.302;2023-03-23T05:27:12;5.10;;;2.10;;
2099;SDS011;1055;48.854;9.302;2023-03-23T05:29:39;6.90;;;2.33;;
2099;SDS011;1055;48.854;9.302;2023-03-23T05:32:06;5.70;;;1.97;;
2099;SDS011;1055;48.854;9.302;2023-03-23T05:34:33;5.97;;;2.07;;
2099;SDS011;1055;48.854;9.302;2023-03-23T05:36:59;5.73;;;2.27;;
2099;SDS011;1055;48.854;9.302;2023-03-23T05:39:29;8.17;;;2.10;;
2099;SDS011;1055;48.854;9.302;2023-03-23T05:41:56;7.07;;;2.20;;
2099;SDS011;1055;48.854;9.302;2023-03-23T05:44:23;5.00;;;2.07;;
2099;SDS011;1055;48.854;9.302;2023-03-23T05:46:49;6.00;;;2.37;;
2099;SDS011;1055;48.854;9.302;2023-03-23T05:49:15;6.37;;;2.67;;
2099;SDS011;1055;48.854;9.302;2023-03-23T05:51:41;5.20;;;2.00;;
2099;SDS011;1055;48.854;9.302;2023-03-23T05:54:15;5.20;;;1.90;;
2099;SDS011;1055;48.854;9.302;2023-03-23T05:56:41;5.30;;;2.17;;
2099;SDS011;1055;48.854;9.302;2023-03-23T05:59:07;5.63;;;2.17;;
2099;SDS011;1055;48.854;9.302;2023-03-23T06:01:35;7.23;;;2.30;;
2099;SDS011;1055;48.854;9.302;2023-03-23T06:04:00;6.67;;;2.60;;
2099;SDS011;1055;48.854;9.302;2023-03-23T06:06:27;5.10;;;2.17;;
2099;SDS011;1055;48.854;9.302;2023-03-23T06:08:57;5.80;;;2.23;;
2099;SDS011;1055;48.854;9.302;2023-03-23T06:11:24;6.00;;;2.07;;
2099;SDS011;1055;48.854;9.302;2023-03-23T06:13:51;7.50;;;2.60;;
2099;SDS011;1055;48.854;9.302;2023-03-23T06:16:18;5.87;;;2.40;;
2099;SDS011;1055;48.854;9.302;2023-03-23T06:18:44;6.73;;;2.37;;
2099;SDS011;1055;48.854;9.302;2023-03-23T06:21:10;6.60;;;1.93;;
2099;SDS011;1055;48.854;9.302;2023-03-23T06:23:37;6.40;;;2.37;;
2099;SDS011;1055;48.854;9.302;2023-03-23T06:26:04;5.73;;;2.33;;
2099;SDS011;1055;48.854;9.302;2023-03-23T06:28:32;5.60;;;2.10;;
2099;SDS011;1055;48.854;9.302;2023-03-23T06:30:59;9.83;;;2.60;;
2099;SDS011;1055;48.854;9.302;2023-03-23T06:33:31;6.17;;;2.10;;
2099;SDS011;1055;48.854;9.302;2023-03-23T06:36:01;8.17;;;2.57;;
2099;SDS011;1055;48.854;9.302;2023-03-23T06:38:27;5.90;;;2.57;;
2099;SDS011;1055;48.854;9.302;2023-03-23T06:40:53;5.40;;;2.40;;
2099;SDS011;1055;48.854;9.302;2023-03-23T06:43:20;7.13;;;2.80;;
2099;SDS011;1055;48.854;9.302;2023-03-23T06:45:46;6.23;;;2.70;;
2099;SDS011;1055;48.854;9.302;2023-03-23T06:48:12;7.27;;;2.60;;
2099;SDS011;1055;48.854;9.302;2023-03-23T06:50:38;6.70;;;3.13;;
2099;SDS011;1055;48.854;9.302;2023-03-23T06:53:07;6.97;;;2.93;;
2099;SDS011;1055;48.854;9.302;2023-03-23T06:55:32;6.83;;;2.80;;
2099;SDS011;1055;48.854;9.302;2023-03-23T06:57:58;6.27;;;2.97;;
2099;SDS011;1055;48.854;9.302;2023-03-23T07:00:26;6.10;;;3.00;;
2099;SDS011;1055;48.854;9.302;2023-03-23T07:02:52;6.73;;;3.00;;
2099;SDS011;1055;48.854;9.302;2023-03-23T07:05:18;8.30;;;3.20;;
2099;SDS011;1055;48.854;9.302;2023-03-23T07:07:44;7.40;;;3.30;;
2099;SDS011;1055;48.854;9.302;2023-03-23T07:10:10;7.13;;;3.10;;
2099;SDS011;1055;48.854;9.302;2023-03-23T07:12:36;7.43;;;3.23;;
2099;SDS011;1055;48.854;9.302;2023-03-23T07:15:03;8.03;;;3.80;;
2099;SDS011;1055;48.854;9.302;2023-03-23T07:17:29;7.83;;;2.90;;
2099;SDS011;1055;48.854;9.302;2023-03-23T07:19:55;7.23;;;3.53;;
2099;SDS011;1055;48.854;9.302;2023-03-23T07:22:21;11.83;;;3.33;;
2099;SDS011;1055;48.854;9.302;2023-03-23T07:24:46;9.10;;;3.40;;
2099;SDS011;1055;48.854;9.302;2023-03-23T07:27:12;11.43;;;3.93;;
2099;SDS011;1055;48.854;9.302;2023-03-23T07:29:38;7.97;;;3.63;;
2099;SDS011;1055;48.854;9.302;2023-03-23T07:32:05;8.27;;;4.20;;
2099;SDS011;1055;48.854;9.302;2023-03-23T07:34:31;15.23;;;4.17;;
2099;SDS011;1055;48.854;9.302;2023-03-23T07:36:57;6.87;;;3.30;;
2099;SDS011;1055;48.854;9.302;2023-03-23T07:39:24;7.03;;;3.10;;
2099;SDS011;1055;48.854;9.302;2023-03-23T07:41:50;7.30;;;2.80;;
2099;SDS011;1055;48.854;9.302;2023-03-23T07:44:16;6.90;;;2.83;;
2099;SDS011;1055;48.854;9.302;2023-03-23T07:46:42;6.30;;;2.23;;
2099;SDS011;1055;48.854;9.302;2023-03-23T07:49:08;7.20;;;2.43;;
2099;SDS011;1055;48.854;9.302;2023-03-23T07:51:35;5.97;;;2.63;;
2099;SDS011;1055;48.854;9.302;2023-03-23T07:54:03;5.80;;;2.70;;
2099;SDS011;1055;48.854;9.302;2023-03-23T07:56:32;6.27;;;2.87;;
2099;SDS011;1055;48.854;9.302;2023-03-23T07:58:58;6.50;;;3.10;;
2099;SDS011;1055;48.854;9.302;2023-03-23T08:01:24;7.43;;;2.47;;
2099;SDS011;1055;48.854;9.302;2023-03-23T08:03:50;7.60;;;2.80;;
2099;SDS011;1055;48.854;9.302;2023-03-23T08:06:17;8.37;;;3.10;;
2099;SDS011;1055;48.854;9.302;2023-03-23T08:08:42;6.20;;;2.40;;
2099;SDS011;1055;48.854;9.302;2023-03-23T08:11:08;7.10;;;2.47;;
2099;SDS011;1055;48.854;9.302;2023-03-23T08:13:33;6.87;;;2.90;;
2099;SDS011;1055;48.854;9.302;2023-03-23T08:16:00;7.27;;;3.60;;
2099;SDS011;1055;48.854;9.302;2023-03-23T08:18:28;10.57;;;5.43;;
2099;SDS011;1055;48.854;9.302;2023-03-23T08:20:55;9.47;;;4.30;;
2099;SDS011;1055;48.854;9.302;2023-03-23T08:23:21;7.67;;;2.60;;
2099;SDS011;1055;48.854;9.302;2023-03-23T08:25:47;5.30;;;2.20;;
2099;SDS011;1055;48.854;9.302;2023-03-23T08:28:13;6.27;;;2.50;;
2099;SDS011;1055;48.854;9.302;2023-03-23T08:30:39;7.87;;;2.67;;
2099;SDS011;1055;48.854;9.302;2023-03-23T08:33:05;8.00;;;2.73;;
2099;SDS011;1055;48.854;9.302;2023-03-23T08:35:32;6.77;;;2.60;;
2099;SDS011;1055;48.854;9.302;2023-03-23T08:37:58;9.77;;;3.80;;
2099;SDS011;1055;48.854;9.302;2023-03-23T08:40:24;8.57;;;2.60;;
2099;SDS011;1055;48.854;9.302;2023-03-23T08:42:51;5.70;;;2.70;;
2099;SDS011;1055;48.854;9.302;2023-03-23T08:45:19;7.10;;;2.23;;
2099;SDS011;1055;48.854;9.302;2023-03-23T08:47:47;6.30;;;2.70;;
2099;SDS011;1055;48.854;9.302;2023-03-23T08:50:17;6.80;;;2.57;;
2099;SDS011;1055;48.854;9.302;2023-03-23T08:52:44;5.90;;;3.00;;
2099;SDS011;1055;48.854;9.302;2023-03-23T08:55:10;7.10;;;2.87;;
2099;SDS011;1055;48.854;9.302;2023-03-23T08:57:37;7.20;;;2.83;;
2099;SDS011;1055;48.854;9.302;2023-03-23T09:00:04;8.73;;;3.50;;
2099;SDS011;1055;48.854;9.302;2023-03-23T09:02:48;5.50;;;2.40;;
2099;SDS011;1055;48.854;9.302;2023-03-23T09:05:16;7.47;;;3.20;;
2099;SDS011;1055;48.854;9.302;2023-03-23T09:07:46;7.20;;;3.50;;
2099;SDS011;1055;48.854;9.302;2023-03-23T09:10:14;6.80;;;3.20;;
2099;SDS011;1055;48.854;9.302;2023-03-23T09:12:42;8.60;;;4.03;;
2099;SDS011;1055;48.854;9.302;2023-03-23T09:15:09;7.40;;;3.23;;
2099;SDS011;1055;48.854;9.302;2023-03-23T09:17:37;8.40;;;3.50;;
2099;SDS011;1055;48.854;9.302;2023-03-23T09:20:05;7.70;;;2.90;;
2099;SDS011;1055;48.854;9.302;2023-03-23T09:22:36;6.80;;;3.13;;
2099;SDS011;1055;48.854;9.302;2023-03-23T09:25:04;9.07;;;3.30;;
2099;SDS011;1055;48.854;9.302;2023-03-23T09:27:30;8.50;;;3.07;;
2099;SDS011;1055;48.854;9.302;2023-03-23T09:29:56;6.20;;;2.70;;
2099;SDS011;1055;48.854;9.302;2023-03-23T09:32:21;6.40;;;3.17;;
2099;SDS011;1055;48.854;9.302;2023-03-23T09:34:48;6.63;;;3.40;;
2099;SDS011;1055;48.854;9.302;2023-03-23T09:37:14;5.40;;;2.30;;
2099;SDS011;1055;48.854;9.302;2023-03-23T09:39:39;6.90;;;3.10;;
2099;SDS011;1055;48.854;9.302;2023-03-23T09:47:36;8.53;;;2.27;;
2099;SDS011;1055;48.854;9.302;2023-03-23T09:50:18;8.30;;;2.50;;
2099;SDS011;1055;48.854;9.302;2023-03-23T09:55:38;7.13;;;2.97;;
2099;SDS011;1055;48.854;9.302;2023-03-23T09:58:12;7.03;;;2.57;;
2099;SDS011;1055;48.854;9.302;2023-03-23T10:01:08;6.33;;;2.70;;
2099;SDS011;1055;48.854;9.302;2023-03-23T10:03:43;12.40;;;2.70;;
2099;SDS011;1055;48.854;9.302;2023-03-23T10:06:11;6.83;;;2.53;;
2099;SDS011;1055;48.854;9.302;2023-03-23T10:08:43;5.17;;;2.03;;
2099;SDS011;1055;48.854;9.302;2023-03-23T10:13:56;7.60;;;2.60;;
2099;SDS011;1055;48.854;9.302;2023-03-23T10:16:25;5.73;;;1.97;;
2099;SDS011;1055;48.854;9.302;2023-03-23T10:18:56;6.00;;;2.70;;
2099;SDS011;1055;48.854;9.302;2023-03-23T10:21:29;6.77;;;2.30;;
2099;SDS011;1055;48.854;9.302;2023-03-23T10:23:58;6.03;;;2.80;;
2099;SDS011;1055;48.854;9.302;2023-03-23T10:26:28;7.07;;;3.57;;
2099;SDS011;1055;48.854;9.302;2023-03-23T10:29:10;5.70;;;2.87;;
2099;SDS011;1055;48.854;9.302;2023-03-23T10:32:14;5.60;;;2.03;;
2099;SDS011;1055;48.854;9.302;2023-03-23T10:37:18;7.17;;;1.97;;
2099;SDS011;1055;48.854;9.302;2023-03-23T10:39:49;5.50;;;2.00;;
2099;SDS011;1055;48.854;9.302;2023-03-23T10:42:23;6.90;;;3.00;;
2099;SDS011;1055;48.854;9.302;2023-03-23T10:45:00;7.30;;;2.80;;
2099;SDS011;1055;48.854;9.302;2023-03-23T10:47:36;4.93;;;1.83;;
2099;SDS011;1055;48.854;9.302;2023-03-23T10:50:05;6.40;;;2.47;;
2099;SDS011;1055;48.854;9.302;2023-03-23T10:52:40;5.77;;;2.43;;
2099;SDS011;1055;48.854;9.302;2023-03-23T10:57:36;9.27;;;3.03;;
2099;SDS011;1055;48.854;9.302;2023-03-23T11:00:14;8.00;;;3.97;;
2099;SDS011;1055;48.854;9.302;2023-03-23T11:02:45;5.20;;;2.40;;
2099;SDS011;1055;48.854;9.302;2023-03-23T11:05:25;5.90;;;2.33;;
2099;SDS011;1055;48.854;9.302;2023-03-23T11:07:57;6.57;;;3.00;;
2099;SDS011;1055;48.854;9.302;2023-03-23T11:10:48;7.67;;;3.33;;
2099;SDS011;1055;48.854;9.302;2023-03-23T11:13:22;5.80;;;2.30;;
2099;SDS011;1055;48.854;9.302;2023-03-23T11:15:53;5.90;;;2.20;;
2099;SDS011;1055;48.854;9.302;2023-03-23T11:18:20;5.50;;;2.27;;
2099;SDS011;1055;48.854;9.302;2023-03-23T11:20:48;5.20;;;2.00;;
2099;SDS011;1055;48.854;9.302;2023-03-23T11:23:21;6.00;;;2.57;;
2099;SDS011;1055;48.854;9.302;2023-03-23T11:26:03;6.47;;;2.10;;
2099;SDS011;1055;48.854;9.302;2023-03-23T11:28:38;6.33;;;2.27;;
2099;SDS011;1055;48.854;9.302;2023-03-23T11:31:09;5.60;;;2.10;;
2099;SDS011;1055;48.854;9.302;2023-03-23T11:33:36;4.93;;;1.97;;
2099;SDS011;1055;48.854;9.302;2023-03-23T11:36:14;5.10;;;2.20;;
2099;SDS011;1055;48.854;9.302;2023-03-23T11:38:40;6.60;;;2.50;;
2099;SDS011;1055;48.854;9.302;2023-03-23T11:41:11;5.60;;;2.03;;
2099;SDS011;1055;48.854;9.302;2023-03-23T11:43:44;5.17;;;1.90;;
2099;SDS011;1055;48.854;9.302;2023-03-23T11:48:50;5.77;;;2.17;;
2099;SDS011;1055;48.854;9.302;2023-03-23T11:51:39;6.40;;;2.30;;
2099;SDS011;1055;48.854;9.302;2023-03-23T11:54:13;6.03;;;1.70;;
2099;SDS011;1055;48.854;9.302;2023-03-23T11:56:46;5.47;;;2.03;;
2099;SDS011;1055;48.854;9.302;2023-03-23T11:59:13;5.70;;;2.03;;
2099;SDS011;1055;48.854;9.302;2023-03-23T12:07:51;6.80;;;2.10;;
2099;SDS011;1055;48.854;9.302;2023-03-23T12:16:29;5.97;;;1.93;;
2099;SDS011;1055;48.854;9.302;2023-03-23T12:18:51;6.20;;;2.30;;
2099;SDS011;1055;48.854;9.302;2023-03-23T12:24:48;6.60;;;2.40;;
2099;SDS011;1055;48.854;9.302;2023-03-23T12:30:26;7.80;;;1.90;;
2099;SDS011;1055;48.854;9.302;2023-03-23T12:33:18;5.53;;;2.40;;
2099;SDS011;1055;48.854;9.302;2023-03-23T12:38:58;5.93;;;2.60;;
2099;SDS011;1055;48.854;9.302;2023-03-23T12:44:03;5.70;;;2.00;;
2099;SDS011;1055;48.854;9.302;2023-03-23T12:49:07;6.10;;;2.37;;
2099;SDS011;1055;48.854;9.302;2023-03-23T12:51:54;6.17;;;2.07;;
2099;SDS011;1055;48.854;9.302;2023-03-23T12:54:29;7.53;;;2.13;;
2099;SDS011;1055;48.854;9.302;2023-03-23T13:05:31;6.20;;;2.90;;
2099;SDS011;1055;48.854;9.302;2023-03-23T13:07:54;6.10;;;2.50;;
2099;SDS011;1055;48.854;9.302;2023-03-23T13:10:32;9.03;;;2.80;;
2099;SDS011;1055;48.854;9.302;2023-03-23T13:13:17;5.90;;;2.83;;
2099;SDS011;1055;48.854;9.302;2023-03-23T13:18:58;6.50;;;2.87;;
2099;SDS011;1055;48.854;9.302;2023-03-23T13:21:34;9.93;;;3.00;;
2099;SDS011;1055;48.854;9.302;2023-03-23T13:24:10;5.87;;;2.80;;
2099;SDS011;1055;48.854;9.302;2023-03-23T13:26:40;6.10;;;2.60;;
2099;SDS011;1055;48.854;9.302;2023-03-23T13:31:39;10.87;;;3.13;;
2099;SDS011;1055;48.854;9.302;2023-03-23T13:34:16;13.10;;;3.40;;
2099;SDS011;1055;48.854;9.302;2023-03-23T13:36:51;6.67;;;2.90;;
2099;SDS011;1055;48.854;9.302;2023-03-23T13:39:21;6.03;;;2.80;;
2099;SDS011;1055;48.854;9.302;2023-03-23T13:47:27;6.80;;;3.07;;
2099;SDS011;1055;48.854;9.302;2023-03-23T14:00:45;6.40;;;2.90;;
2099;SDS011;1055;48.854;9.302;2023-03-23T14:05:42;6.10;;;2.57;;
2099;SDS011;1055;48.854;9.302;2023-03-23T14:10:55;6.00;;;3.00;;
2099;SDS011;1055;48.854;9.302;2023-03-23T14:18:29;6.33;;;2.90;;
2099;SDS011;1055;48.854;9.302;2023-03-23T14:21:03;6.30;;;2.77;;
2099;SDS011;1055;48.854;9.302;2023-03-23T14:23:31;5.90;;;2.50;;
2099;SDS011;1055;48.854;9.302;2023-03-23T14:25:59;6.00;;;2.53;;
2099;SDS011;1055;48.854;9.302;2023-03-23T14:28:32;6.60;;;3.33;;
2099;SDS011;1055;48.854;9.302;2023-03-23T14:31:08;6.20;;;2.80;;
2099;SDS011;1055;48.854;9.302;2023-03-23T14:33:41;7.20;;;4.10;;
2099;SDS011;1055;48.854;9.302;2023-03-23T14:36:07;7.50;;;3.30;;
2099;SDS011;1055;48.854;9.302;2023-03-23T14:38:33;6.30;;;3.10;;
2099;SDS011;1055;48.854;9.302;2023-03-23T14:40:59;6.00;;;2.57;;
2099;SDS011;1055;48.854;9.302;2023-03-23T14:43:27;6.47;;;2.40;;
2099;SDS011;1055;48.854;9.302;2023-03-23T14:45:54;6.40;;;2.90;;
2099;SDS011;1055;48.854;9.302;2023-03-23T14:48:23;8.90;;;3.77;;
2099;SDS011;1055;48.854;9.302;2023-03-23T14:50:52;6.77;;;2.93;;
2099;SDS011;1055;48.854;9.302;2023-03-23T14:53:23;5.60;;;2.80;;
2099;SDS011;1055;48.854;9.302;2023-03-23T14:55:50;7.83;;;3.27;;
2099;SDS011;1055;48.854;9.302;2023-03-23T14:58:18;7.73;;;3.23;;
2099;SDS011;1055;48.854;9.302;2023-03-23T15:00:52;6.30;;;3.27;;
2099;SDS011;1055;48.854;9.302;2023-03-23T15:03:20;7.40;;;3.00;;
2099;SDS011;1055;48.854;9.302;2023-03-23T15:05:56;6.20;;;2.67;;
2099;SDS011;1055;48.854;9.302;2023-03-23T15:11:12;5.63;;;2.90;;
2099;SDS011;1055;48.854;9.302;2023-03-23T15:13:50;5.93;;;2.40;;
2099;SDS011;1055;48.854;9.302;2023-03-23T15:16:26;8.90;;;2.80;;
2099;SDS011;1055;48.854;9.302;2023-03-23T15:18:56;8.10;;;4.60;;
2099;SDS011;1055;48.854;9.302;2023-03-23T15:23:55;6.33;;;3.03;;
2099;SDS011;1055;48.854;9.302;2023-03-23T15:26:32;8.13;;;2.93;;
2099;SDS011;1055;48.854;9.302;2023-03-23T15:29:04;6.40;;;2.47;;
2099;SDS011;1055;48.854;9.302;2023-03-23T15:31:47;6.53;;;2.93;;
2099;SDS011;1055;48.854;9.302;2023-03-23T15:34:19;6.63;;;2.97;;
2099;SDS011;1055;48.854;9.302;2023-03-23T15:37:05;5.67;;;2.63;;
2099;SDS011;1055;48.854;9.302;2023-03-23T15:39:45;5.93;;;3.00;;
2099;SDS011;1055;48.854;9.302;2023-03-23T15:42:21;5.33;;;2.40;;
2099;SDS011;1055;48.854;9.302;2023-03-23T15:50:19;5.30;;;2.50;;
2099;SDS011;1055;48.854;9.302;2023-03-23T15:52:51;6.17;;;2.70;;
2099;SDS011;1055;48.854;9.302;2023-03-23T15:57:46;7.43;;;2.60;;
2099;SDS011;1055;48.854;9.302;2023-03-23T16:00:13;6.73;;;2.70;;
2099;SDS011;1055;48.854;9.302;2023-03-23T16:02:39;6.00;;;2.73;;
2099;SDS011;1055;48.854;9.302;2023-03-23T16:05:05;9.43;;;2.57;;
2099;SDS011;1055;48.854;9.302;2023-03-23T16:07:31;7.20;;;3.30;;
2099;SDS011;1055;48.854;9.302;2023-03-23T16:09:57;7.50;;;2.60;;
2099;SDS011;1055;48.854;9.302;2023-03-23T16:12:23;6.30;;;2.70;;
2099;SDS011;1055;48.854;9.302;2023-03-23T16:14:48;6.60;;;2.40;;
2099;SDS011;1055;48.854;9.302;2023-03-23T16:17:18;8.07;;;3.17;;
2099;SDS011;1055;48.854;9.302;2023-03-23T16:19:45;6.13;;;2.67;;
2099;SDS011;1055;48.854;9.302;2023-03-23T16:22:11;6.73;;;2.60;;
2099;SDS011;1055;48.854;9.302;2023-03-23T16:24:36;7.80;;;2.90;;
2099;SDS011;1055;48.854;9.302;2023-03-23T16:27:02;6.80;;;2.67;;
2099;SDS011;1055;48.854;9.302;2023-03-23T16:29:28;5.20;;;2.30;;
2099;SDS011;1055;48.854;9.302;2023-03-23T16:31:54;6.90;;;2.70;;
2099;SDS011;1055;48.854;9.302;2023-03-23T16:34:20;7.03;;;2.60;;
2099;SDS011;1055;48.854;9.302;2023-03-23T16:36:45;6.00;;;3.27;;
2099;SDS011;1055;48.854;9.302;2023-03-23T16:39:11;5.70;;;2.10;;
2099;SDS011;1055;48.854;9.302;2023-03-23T16:41:36;7.47;;;2.87;;
2099;SDS011;1055;48.854;9.302;2023-03-23T16:44:02;6.37;;;2.67;;
2099;SDS011;1055;48.854;9.302;2023-03-23T16:46:28;5.83;;;2.80;;
2099;SDS011;1055;48.854;9.302;2023-03-23T16:48:54;7.00;;;2.97;;
2099;SDS011;1055;48.854;9.302;2023-03-23T16:51:20;7.00;;;2.53;;
2099;SDS011;1055;48.854;9.302;2023-03-23T16:53:46;6.40;;;2.73;;
2099;SDS011;1055;48.854;9.302;2023-03-23T16:56:11;6.57;;;2.57;;
2099;SDS011;1055;48.854;9.302;2023-03-23T16:58:37;6.87;;;2.80;;
2099;SDS011;1055;48.854;9.302;2023-03-23T17:01:03;5.47;;;2.53;;
2099;SDS011;1055;48.854;9.302;2023-03-23T17:03:32;5.20;;;2.03;;
2099;SDS011;1055;48.854;9.302;2023-03-23T17:05:58;7.20;;;2.60;;
2099;SDS011;1055;48.854;9.302;2023-03-23T17:08:25;12.70;;;2.80;;
2099;SDS011;1055;48.854;9.302;2023-03-23T17:10:51;5.87;;;2.83;;
2099;SDS011;1055;48.854;9.302;2023-03-23T17:13:17;6.70;;;2.50;;
2099;SDS011;1055;48.854;9.302;2023-03-23T17:15:43;6.27;;;2.60;;
2099;SDS011;1055;48.854;9.302;2023-03-23T17:18:10;9.93;;;2.90;;
2099;SDS011;1055;48.854;9.302;2023-03-23T17:20:37;6.73;;;2.53;;
2099;SDS011;1055;48.854;9.302;2023-03-23T17:23:03;6.17;;;2.17;;
2099;SDS011;1055;48.854;9.302;2023-03-23T17:25:29;5.90;;;2.47;;
2099;SDS011;1055;48.854;9.302;2023-03-23T17:27:56;6.03;;;2.50;;
2099;SDS011;1055;48.854;9.302;2023-03-23T17:30:22;7.43;;;2.90;;